NZWN/WLG METAR and TAF weather

Enter ICAO airport designator
Station Type Date Time Source
NZWN METAR 2022/06/30 14:00 UTC NOAA

NZWN 301400Z AUTO 18019KT 9999 FEW015/// BKN032/// 11/09 Q1009 NOSIG


Station Type Date Time Source
NZWN Decoded METAR 2022/06/30 14:00 UTC NOAA

Wellington Airport, New Zealand (NZWN) 41-20S 174-48E 8M
Jun 30, 2022 - 10:00 AM EDT / 2022.06.30 1400 UTC
Wind: from the S (180 degrees) at 22 MPH (19 KT):0
Visibility: greater than 7 mile(s):0
Sky conditions: mostly cloudy
Temperature: 51 F (11 C)
Dew Point: 48 F (9 C)
Relative Humidity: 87%
Pressure (altimeter): 29.80 in. Hg (1009 hPa)
ob: NZWN 301400Z AUTO 18019KT 9999 FEW015/// BKN032/// 11/09 Q1009 NOSIG
cycle: 14

Station Type Date Time Source
NZWN TAF 2022/06/30 12:08 UTC NOAA

TAF NZWN 301105Z 3012/0112 33015G25KT 9999 FEW030
FM301300 18025KT 9999 -SHRA BKN020
TEMPO 3013/3016 7000 SHRA BKN015
FM301900 20010KT 9999 FEW030
BECMG 0100/0102 35008KT

Example: see airport list